sensor_id;sensor_type;location;lat;lon;timestamp;P1;durP1;ratioP1;P2;durP2;ratioP2
22883;SDS011;13386;24.786;110.488;2023-09-12T00:01:14;7.47;;;2.30;;
22883;SDS011;13386;24.786;110.488;2023-09-12T00:03:46;4.53;;;2.22;;
22883;SDS011;13386;24.786;110.488;2023-09-12T00:06:16;2.95;;;1.70;;
22883;SDS011;13386;24.786;110.488;2023-09-12T00:08:48;5.47;;;2.20;;
22883;SDS011;13386;24.786;110.488;2023-09-12T00:11:18;5.95;;;2.08;;
22883;SDS011;13386;24.786;110.488;2023-09-12T00:13:52;8.63;;;2.17;;
22883;SDS011;13386;24.786;110.488;2023-09-12T00:16:22;8.52;;;2.50;;
22883;SDS011;13386;24.786;110.488;2023-09-12T00:18:52;10.55;;;2.50;;
22883;SDS011;13386;24.786;110.488;2023-09-12T00:21:22;4.28;;;2.10;;
22883;SDS011;13386;24.786;110.488;2023-09-12T00:23:54;6.53;;;2.40;;
22883;SDS011;13386;24.786;110.488;2023-09-12T00:26:24;6.97;;;2.15;;
22883;SDS011;13386;24.786;110.488;2023-09-12T00:28:55;6.93;;;2.20;;
22883;SDS011;13386;24.786;110.488;2023-09-12T00:31:25;7.95;;;2.30;;
22883;SDS011;13386;24.786;110.488;2023-09-12T00:33:55;6.57;;;2.00;;
22883;SDS011;13386;24.786;110.488;2023-09-12T00:36:25;6.70;;;2.00;;
22883;SDS011;13386;24.786;110.488;2023-09-12T00:38:59;5.53;;;2.10;;
22883;SDS011;13386;24.786;110.488;2023-09-12T00:41:29;12.70;;;2.20;;
22883;SDS011;13386;24.786;110.488;2023-09-12T00:43:59;5.50;;;2.10;;
22883;SDS011;13386;24.786;110.488;2023-09-12T00:46:29;6.97;;;2.00;;
22883;SDS011;13386;24.786;110.488;2023-09-12T00:49:00;3.53;;;2.00;;
22883;SDS011;13386;24.786;110.488;2023-09-12T00:51:38;9.52;;;1.98;;
22883;SDS011;13386;24.786;110.488;2023-09-12T00:54:10;7.07;;;2.00;;
22883;SDS011;13386;24.786;110.488;2023-09-12T00:56:42;7.35;;;2.30;;
22883;SDS011;13386;24.786;110.488;2023-09-12T00:59:15;5.68;;;1.95;;
22883;SDS011;13386;24.786;110.488;2023-09-12T01:01:46;6.30;;;2.40;;
22883;SDS011;13386;24.786;110.488;2023-09-12T01:04:17;7.25;;;2.03;;
22883;SDS011;13386;24.786;110.488;2023-09-12T01:06:47;9.45;;;2.05;;
22883;SDS011;13386;24.786;110.488;2023-09-12T01:09:19;7.28;;;2.28;;
22883;SDS011;13386;24.786;110.488;2023-09-12T01:11:49;7.53;;;1.75;;
22883;SDS011;13386;24.786;110.488;2023-09-12T01:14:20;7.03;;;2.00;;
22883;SDS011;13386;24.786;110.488;2023-09-12T01:16:50;3.55;;;1.98;;
22883;SDS011;13386;24.786;110.488;2023-09-12T01:19:20;3.58;;;1.92;;
22883;SDS011;13386;24.786;110.488;2023-09-12T01:22:01;6.13;;;2.33;;
22883;SDS011;13386;24.786;110.488;2023-09-12T01:27:26;7.03;;;2.30;;
22883;SDS011;13386;24.786;110.488;2023-09-12T01:30:04;6.38;;;2.00;;
22883;SDS011;13386;24.786;110.488;2023-09-12T01:32:35;3.42;;;2.03;;
22883;SDS011;13386;24.786;110.488;2023-09-12T01:35:30;5.03;;;2.30;;
22883;SDS011;13386;24.786;110.488;2023-09-12T01:38:00;5.10;;;2.08;;
22883;SDS011;13386;24.786;110.488;2023-09-12T01:40:32;6.95;;;2.60;;
22883;SDS011;13386;24.786;110.488;2023-09-12T01:43:05;6.90;;;2.22;;
22883;SDS011;13386;24.786;110.488;2023-09-12T01:45:36;9.70;;;2.70;;
22883;SDS011;13386;24.786;110.488;2023-09-12T01:48:08;9.73;;;2.20;;
22883;SDS011;13386;24.786;110.488;2023-09-12T01:50:39;6.43;;;1.77;;
22883;SDS011;13386;24.786;110.488;2023-09-12T01:53:09;7.53;;;2.15;;
22883;SDS011;13386;24.786;110.488;2023-09-12T01:55:41;7.97;;;2.45;;
22883;SDS011;13386;24.786;110.488;2023-09-12T01:58:27;8.40;;;2.40;;
22883;SDS011;13386;24.786;110.488;2023-09-12T02:00:57;6.65;;;3.30;;
22883;SDS011;13386;24.786;110.488;2023-09-12T02:03:38;7.10;;;2.90;;
22883;SDS011;13386;24.786;110.488;2023-09-12T02:06:08;5.93;;;2.70;;
22883;SDS011;13386;24.786;110.488;2023-09-12T02:08:39;4.80;;;2.60;;
22883;SDS011;13386;24.786;110.488;2023-09-12T02:11:09;7.25;;;2.15;;
22883;SDS011;13386;24.786;110.488;2023-09-12T02:13:41;7.55;;;2.20;;
22883;SDS011;13386;24.786;110.488;2023-09-12T02:16:14;3.63;;;1.80;;
22883;SDS011;13386;24.786;110.488;2023-09-12T02:18:44;6.68;;;2.42;;
22883;SDS011;13386;24.786;110.488;2023-09-12T02:21:15;3.63;;;2.10;;
22883;SDS011;13386;24.786;110.488;2023-09-12T02:23:45;3.83;;;2.28;;
22883;SDS011;13386;24.786;110.488;2023-09-12T02:26:29;7.72;;;2.88;;
22883;SDS011;13386;24.786;110.488;2023-09-12T02:29:10;8.15;;;3.53;;
22883;SDS011;13386;24.786;110.488;2023-09-12T02:31:40;12.18;;;3.83;;
22883;SDS011;13386;24.786;110.488;2023-09-12T02:34:11;7.80;;;3.03;;
22883;SDS011;13386;24.786;110.488;2023-09-12T02:36:41;4.78;;;2.47;;
22883;SDS011;13386;24.786;110.488;2023-09-12T02:39:11;3.40;;;2.20;;
22883;SDS011;13386;24.786;110.488;2023-09-12T02:41:41;6.20;;;2.40;;
22883;SDS011;13386;24.786;110.488;2023-09-12T02:44:13;5.93;;;2.30;;
22883;SDS011;13386;24.786;110.488;2023-09-12T02:46:43;10.27;;;2.03;;
22883;SDS011;13386;24.786;110.488;2023-09-12T02:49:15;4.95;;;2.10;;
22883;SDS011;13386;24.786;110.488;2023-09-12T02:51:45;6.93;;;2.42;;
22883;SDS011;13386;24.786;110.488;2023-09-12T02:54:16;4.95;;;2.20;;
22883;SDS011;13386;24.786;110.488;2023-09-12T02:56:46;8.15;;;2.28;;
22883;SDS011;13386;24.786;110.488;2023-09-12T02:59:18;5.95;;;2.10;;
22883;SDS011;13386;24.786;110.488;2023-09-12T03:02:00;5.70;;;2.10;;
22883;SDS011;13386;24.786;110.488;2023-09-12T03:04:35;7.43;;;2.20;;
22883;SDS011;13386;24.786;110.488;2023-09-12T03:07:06;4.78;;;2.35;;
22883;SDS011;13386;24.786;110.488;2023-09-12T03:09:47;5.70;;;2.10;;
22883;SDS011;13386;24.786;110.488;2023-09-12T03:12:18;5.85;;;2.38;;
22883;SDS011;13386;24.786;110.488;2023-09-12T03:14:50;5.28;;;2.22;;
22883;SDS011;13386;24.786;110.488;2023-09-12T03:17:20;6.47;;;2.00;;
22883;SDS011;13386;24.786;110.488;2023-09-12T03:19:51;5.53;;;1.77;;
22883;SDS011;13386;24.786;110.488;2023-09-12T03:22:21;9.52;;;2.47;;
22883;SDS011;13386;24.786;110.488;2023-09-12T03:24:51;8.05;;;2.00;;
22883;SDS011;13386;24.786;110.488;2023-09-12T03:27:22;5.45;;;1.70;;
22883;SDS011;13386;24.786;110.488;2023-09-12T03:29:54;5.13;;;2.05;;
22883;SDS011;13386;24.786;110.488;2023-09-12T03:32:25;6.97;;;2.05;;
22883;SDS011;13386;24.786;110.488;2023-09-12T03:34:55;4.18;;;1.90;;
22883;SDS011;13386;24.786;110.488;2023-09-12T03:37:25;5.88;;;2.13;;
22883;SDS011;13386;24.786;110.488;2023-09-12T03:39:56;4.97;;;2.17;;
22883;SDS011;13386;24.786;110.488;2023-09-12T03:42:26;5.18;;;1.73;;
22883;SDS011;13386;24.786;110.488;2023-09-12T03:44:58;4.68;;;2.10;;
22883;SDS011;13386;24.786;110.488;2023-09-12T03:47:28;4.60;;;1.75;;
22883;SDS011;13386;24.786;110.488;2023-09-12T03:49:59;4.97;;;1.67;;
22883;SDS011;13386;24.786;110.488;2023-09-12T03:52:29;5.28;;;1.98;;
22883;SDS011;13386;24.786;110.488;2023-09-12T03:55:06;35.80;;;5.88;;
22883;SDS011;13386;24.786;110.488;2023-09-12T03:57:36;4.47;;;1.90;;
22883;SDS011;13386;24.786;110.488;2023-09-12T04:00:21;4.05;;;1.80;;
22883;SDS011;13386;24.786;110.488;2023-09-12T04:02:51;7.68;;;2.20;;
22883;SDS011;13386;24.786;110.488;2023-09-12T04:05:21;8.45;;;2.05;;
22883;SDS011;13386;24.786;110.488;2023-09-12T04:08:13;6.05;;;1.63;;
22883;SDS011;13386;24.786;110.488;2023-09-12T04:11:01;6.10;;;1.80;;
22883;SDS011;13386;24.786;110.488;2023-09-12T04:13:33;7.78;;;2.20;;
22883;SDS011;13386;24.786;110.488;2023-09-12T04:16:05;8.05;;;1.90;;
22883;SDS011;13386;24.786;110.488;2023-09-12T04:18:35;4.97;;;2.00;;
22883;SDS011;13386;24.786;110.488;2023-09-12T04:21:06;4.55;;;2.00;;
22883;SDS011;13386;24.786;110.488;2023-09-12T04:23:37;7.05;;;2.20;;
22883;SDS011;13386;24.786;110.488;2023-09-12T04:26:07;6.53;;;2.20;;
22883;SDS011;13386;24.786;110.488;2023-09-12T04:28:37;5.28;;;1.98;;
22883;SDS011;13386;24.786;110.488;2023-09-12T04:31:09;9.55;;;2.40;;
22883;SDS011;13386;24.786;110.488;2023-09-12T04:33:41;4.43;;;2.20;;
22883;SDS011;13386;24.786;110.488;2023-09-12T04:36:12;8.77;;;2.08;;
22883;SDS011;13386;24.786;110.488;2023-09-12T04:38:42;5.45;;;1.95;;
22883;SDS011;13386;24.786;110.488;2023-09-12T04:41:16;8.43;;;1.90;;
22883;SDS011;13386;24.786;110.488;2023-09-12T04:43:46;5.30;;;1.80;;
22883;SDS011;13386;24.786;110.488;2023-09-12T04:46:19;5.28;;;1.80;;
22883;SDS011;13386;24.786;110.488;2023-09-12T04:48:49;4.00;;;1.52;;
22883;SDS011;13386;24.786;110.488;2023-09-12T04:51:19;5.30;;;1.77;;
22883;SDS011;13386;24.786;110.488;2023-09-12T04:53:49;2.17;;;1.48;;
22883;SDS011;13386;24.786;110.488;2023-09-12T04:56:20;4.57;;;1.50;;
22883;SDS011;13386;24.786;110.488;2023-09-12T04:58:53;4.18;;;1.70;;
22883;SDS011;13386;24.786;110.488;2023-09-12T05:01:25;6.72;;;1.52;;
22883;SDS011;13386;24.786;110.488;2023-09-12T05:03:56;7.30;;;1.90;;
22883;SDS011;13386;24.786;110.488;2023-09-12T05:06:27;4.03;;;1.50;;
22883;SDS011;13386;24.786;110.488;2023-09-12T05:08:58;13.50;;;4.20;;
22883;SDS011;13386;24.786;110.488;2023-09-12T05:11:30;12.73;;;2.97;;
22883;SDS011;13386;24.786;110.488;2023-09-12T05:14:01;3.42;;;1.67;;
22883;SDS011;13386;24.786;110.488;2023-09-12T05:16:33;7.57;;;2.03;;
22883;SDS011;13386;24.786;110.488;2023-09-12T05:19:05;6.63;;;2.00;;
22883;SDS011;13386;24.786;110.488;2023-09-12T05:21:35;5.70;;;1.90;;
22883;SDS011;13386;24.786;110.488;2023-09-12T05:24:06;10.25;;;2.22;;
22883;SDS011;13386;24.786;110.488;2023-09-12T05:26:37;7.60;;;2.25;;
22883;SDS011;13386;24.786;110.488;2023-09-12T05:29:08;5.43;;;1.90;;
22883;SDS011;13386;24.786;110.488;2023-09-12T05:31:40;5.63;;;1.70;;
22883;SDS011;13386;24.786;110.488;2023-09-12T05:34:10;3.67;;;1.60;;
22883;SDS011;13386;24.786;110.488;2023-09-12T05:37:09;4.75;;;2.03;;
22883;SDS011;13386;24.786;110.488;2023-09-12T05:39:40;3.97;;;1.80;;
22883;SDS011;13386;24.786;110.488;2023-09-12T05:42:12;5.53;;;2.15;;
22883;SDS011;13386;24.786;110.488;2023-09-12T05:44:53;5.57;;;2.00;;
22883;SDS011;13386;24.786;110.488;2023-09-12T05:47:31;7.28;;;2.30;;
22883;SDS011;13386;24.786;110.488;2023-09-12T05:50:02;4.78;;;1.90;;
22883;SDS011;13386;24.786;110.488;2023-09-12T05:52:34;3.92;;;2.00;;
22883;SDS011;13386;24.786;110.488;2023-09-12T05:55:06;7.18;;;1.92;;
22883;SDS011;13386;24.786;110.488;2023-09-12T05:57:36;6.13;;;2.20;;
22883;SDS011;13386;24.786;110.488;2023-09-12T06:00:14;5.95;;;1.98;;
22883;SDS011;13386;24.786;110.488;2023-09-12T06:02:58;8.38;;;1.90;;
22883;SDS011;13386;24.786;110.488;2023-09-12T06:05:47;7.32;;;2.00;;
22883;SDS011;13386;24.786;110.488;2023-09-12T06:08:17;4.72;;;2.08;;
22883;SDS011;13386;24.786;110.488;2023-09-12T06:10:49;5.38;;;1.92;;
22883;SDS011;13386;24.786;110.488;2023-09-12T06:13:22;7.07;;;2.00;;
22883;SDS011;13386;24.786;110.488;2023-09-12T06:15:52;4.82;;;2.00;;
22883;SDS011;13386;24.786;110.488;2023-09-12T06:18:28;4.53;;;1.75;;
22883;SDS011;13386;24.786;110.488;2023-09-12T06:21:08;8.30;;;1.90;;
22883;SDS011;13386;24.786;110.488;2023-09-12T06:23:43;5.30;;;1.95;;
22883;SDS011;13386;24.786;110.488;2023-09-12T06:26:15;5.00;;;1.50;;
22883;SDS011;13386;24.786;110.488;2023-09-12T06:28:47;4.57;;;1.92;;
22883;SDS011;13386;24.786;110.488;2023-09-12T06:31:17;2.65;;;1.48;;
22883;SDS011;13386;24.786;110.488;2023-09-12T06:33:50;7.20;;;2.40;;
22883;SDS011;13386;24.786;110.488;2023-09-12T06:36:20;3.38;;;1.50;;
22883;SDS011;13386;24.786;110.488;2023-09-12T06:38:51;3.03;;;1.33;;
22883;SDS011;13386;24.786;110.488;2023-09-12T06:41:22;3.67;;;0.90;;
22883;SDS011;13386;24.786;110.488;2023-09-12T06:43:52;4.40;;;0.80;;
22883;SDS011;13386;24.786;110.488;2023-09-12T06:46:26;2.63;;;1.08;;
22883;SDS011;13386;24.786;110.488;2023-09-12T06:49:00;1.70;;;0.90;;
22883;SDS011;13386;24.786;110.488;2023-09-12T06:51:39;3.33;;;1.00;;
22883;SDS011;13386;24.786;110.488;2023-09-12T06:54:10;5.70;;;1.20;;
22883;SDS011;13386;24.786;110.488;2023-09-12T06:56:41;3.58;;;1.10;;
22883;SDS011;13386;24.786;110.488;2023-09-12T06:59:29;2.63;;;1.10;;
22883;SDS011;13386;24.786;110.488;2023-09-12T07:01:59;2.05;;;1.20;;
22883;SDS011;13386;24.786;110.488;2023-09-12T07:04:54;3.75;;;1.20;;
22883;SDS011;13386;24.786;110.488;2023-09-12T07:07:28;4.13;;;1.05;;
22883;SDS011;13386;24.786;110.488;2023-09-12T07:09:59;2.28;;;0.90;;
22883;SDS011;13386;24.786;110.488;2023-09-12T07:12:30;3.95;;;1.20;;
22883;SDS011;13386;24.786;110.488;2023-09-12T07:15:02;3.28;;;1.13;;
22883;SDS011;13386;24.786;110.488;2023-09-12T07:17:32;1.75;;;1.08;;
22883;SDS011;13386;24.786;110.488;2023-09-12T07:20:05;2.28;;;1.05;;
22883;SDS011;13386;24.786;110.488;2023-09-12T07:22:38;1.60;;;1.00;;
22883;SDS011;13386;24.786;110.488;2023-09-12T07:25:09;1.45;;;0.90;;
22883;SDS011;13386;24.786;110.488;2023-09-12T07:27:42;2.58;;;1.20;;
22883;SDS011;13386;24.786;110.488;2023-09-12T07:30:12;2.63;;;0.88;;
22883;SDS011;13386;24.786;110.488;2023-09-12T07:32:43;3.00;;;1.15;;
22883;SDS011;13386;24.786;110.488;2023-09-12T07:35:27;1.83;;;1.08;;
22883;SDS011;13386;24.786;110.488;2023-09-12T07:37:59;2.58;;;1.05;;
22883;SDS011;13386;24.786;110.488;2023-09-12T07:40:30;4.07;;;1.02;;
22883;SDS011;13386;24.786;110.488;2023-09-12T07:43:05;3.22;;;1.20;;
22883;SDS011;13386;24.786;110.488;2023-09-12T07:45:39;1.75;;;1.05;;
22883;SDS011;13386;24.786;110.488;2023-09-12T07:48:09;2.30;;;1.20;;
22883;SDS011;13386;24.786;110.488;2023-09-12T07:50:44;3.45;;;1.60;;
22883;SDS011;13386;24.786;110.488;2023-09-12T07:53:16;4.38;;;1.50;;
22883;SDS011;13386;24.786;110.488;2023-09-12T07:55:50;1.47;;;0.90;;
22883;SDS011;13386;24.786;110.488;2023-09-12T07:58:21;3.17;;;0.90;;
22883;SDS011;13386;24.786;110.488;2023-09-12T08:00:52;2.30;;;1.10;;
22883;SDS011;13386;24.786;110.488;2023-09-12T08:03:22;3.72;;;1.40;;
22883;SDS011;13386;24.786;110.488;2023-09-12T08:05:57;3.00;;;1.33;;
22883;SDS011;13386;24.786;110.488;2023-09-12T08:08:27;3.55;;;1.65;;
22883;SDS011;13386;24.786;110.488;2023-09-12T08:11:02;2.78;;;1.30;;
22883;SDS011;13386;24.786;110.488;2023-09-12T08:13:33;2.78;;;1.42;;
22883;SDS011;13386;24.786;110.488;2023-09-12T08:16:03;3.00;;;1.40;;
22883;SDS011;13386;24.786;110.488;2023-09-12T08:18:34;3.95;;;1.60;;
22883;SDS011;13386;24.786;110.488;2023-09-12T08:21:12;4.43;;;1.70;;
22883;SDS011;13386;24.786;110.488;2023-09-12T08:23:42;4.13;;;1.55;;
22883;SDS011;13386;24.786;110.488;2023-09-12T08:26:12;4.03;;;1.67;;
22883;SDS011;13386;24.786;110.488;2023-09-12T08:28:43;4.45;;;2.10;;
22883;SDS011;13386;24.786;110.488;2023-09-12T08:31:13;3.65;;;1.67;;
22883;SDS011;13386;24.786;110.488;2023-09-12T08:33:45;3.58;;;1.40;;
22883;SDS011;13386;24.786;110.488;2023-09-12T08:36:17;4.32;;;1.73;;
22883;SDS011;13386;24.786;110.488;2023-09-12T08:38:47;4.15;;;1.50;;
22883;SDS011;13386;24.786;110.488;2023-09-12T08:41:17;6.03;;;1.70;;
22883;SDS011;13386;24.786;110.488;2023-09-12T08:43:47;2.92;;;1.33;;
22883;SDS011;13386;24.786;110.488;2023-09-12T08:46:18;4.28;;;1.63;;
22883;SDS011;13386;24.786;110.488;2023-09-12T08:48:48;3.72;;;1.60;;
22883;SDS011;13386;24.786;110.488;2023-09-12T08:51:20;6.10;;;1.50;;
22883;SDS011;13386;24.786;110.488;2023-09-12T08:53:51;6.80;;;1.60;;
22883;SDS011;13386;24.786;110.488;2023-09-12T08:56:22;3.25;;;1.30;;
22883;SDS011;13386;24.786;110.488;2023-09-12T08:58:53;3.55;;;1.60;;
22883;SDS011;13386;24.786;110.488;2023-09-12T09:01:27;3.60;;;1.60;;
22883;SDS011;13386;24.786;110.488;2023-09-12T09:03:59;4.50;;;1.58;;
22883;SDS011;13386;24.786;110.488;2023-09-12T09:06:33;3.60;;;1.52;;
22883;SDS011;13386;24.786;110.488;2023-09-12T09:09:04;3.30;;;1.50;;
22883;SDS011;13386;24.786;110.488;2023-09-12T09:11:34;3.38;;;1.23;;
22883;SDS011;13386;24.786;110.488;2023-09-12T09:14:05;5.18;;;1.40;;
22883;SDS011;13386;24.786;110.488;2023-09-12T09:16:35;4.95;;;1.55;;
22883;SDS011;13386;24.786;110.488;2023-09-12T09:19:05;3.40;;;1.60;;
22883;SDS011;13386;24.786;110.488;2023-09-12T09:21:38;3.58;;;1.60;;
22883;SDS011;13386;24.786;110.488;2023-09-12T09:24:34;6.38;;;1.80;;
22883;SDS011;13386;24.786;110.488;2023-09-12T09:27:05;3.45;;;1.60;;
22883;SDS011;13386;24.786;110.488;2023-09-12T09:29:45;41.95;;;6.13;;
22883;SDS011;13386;24.786;110.488;2023-09-12T09:32:22;16.52;;;2.95;;
22883;SDS011;13386;24.786;110.488;2023-09-12T09:34:53;15.00;;;2.92;;
22883;SDS011;13386;24.786;110.488;2023-09-12T09:37:25;7.60;;;1.98;;
22883;SDS011;13386;24.786;110.488;2023-09-12T09:39:55;9.35;;;1.80;;
22883;SDS011;13386;24.786;110.488;2023-09-12T09:42:25;5.97;;;2.05;;
22883;SDS011;13386;24.786;110.488;2023-09-12T09:45:00;5.93;;;1.90;;
22883;SDS011;13386;24.786;110.488;2023-09-12T09:47:31;8.98;;;2.17;;
22883;SDS011;13386;24.786;110.488;2023-09-12T09:50:02;4.93;;;1.70;;
22883;SDS011;13386;24.786;110.488;2023-09-12T09:52:35;5.50;;;2.00;;
22883;SDS011;13386;24.786;110.488;2023-09-12T09:55:06;8.13;;;1.90;;
22883;SDS011;13386;24.786;110.488;2023-09-12T09:57:36;5.78;;;1.77;;
22883;SDS011;13386;24.786;110.488;2023-09-12T10:00:10;6.22;;;2.10;;
22883;SDS011;13386;24.786;110.488;2023-09-12T10:02:52;5.05;;;2.10;;
22883;SDS011;13386;24.786;110.488;2023-09-12T10:05:22;8.65;;;2.70;;
22883;SDS011;13386;24.786;110.488;2023-09-12T10:07:55;41.35;;;6.80;;
22883;SDS011;13386;24.786;110.488;2023-09-12T10:10:28;69.47;;;12.05;;
22883;SDS011;13386;24.786;110.488;2023-09-12T10:12:59;49.03;;;9.38;;
22883;SDS011;13386;24.786;110.488;2023-09-12T10:15:33;38.90;;;6.93;;
22883;SDS011;13386;24.786;110.488;2023-09-12T10:18:10;16.55;;;4.53;;
22883;SDS011;13386;24.786;110.488;2023-09-12T10:20:45;8.25;;;3.25;;
22883;SDS011;13386;24.786;110.488;2023-09-12T10:23:19;9.75;;;2.70;;
22883;SDS011;13386;24.786;110.488;2023-09-12T10:25:49;11.40;;;3.45;;
22883;SDS011;13386;24.786;110.488;2023-09-12T10:28:20;5.85;;;2.38;;
22883;SDS011;13386;24.786;110.488;2023-09-12T10:30:50;6.82;;;2.13;;
22883;SDS011;13386;24.786;110.488;2023-09-12T10:33:21;5.90;;;2.08;;
22883;SDS011;13386;24.786;110.488;2023-09-12T10:35:58;12.73;;;3.33;;
22883;SDS011;13386;24.786;110.488;2023-09-12T10:38:32;16.60;;;3.40;;
22883;SDS011;13386;24.786;110.488;2023-09-12T10:41:06;61.50;;;7.47;;
22883;SDS011;13386;24.786;110.488;2023-09-12T10:43:36;24.77;;;3.50;;
22883;SDS011;13386;24.786;110.488;2023-09-12T10:46:07;10.23;;;2.42;;
22883;SDS011;13386;24.786;110.488;2023-09-12T10:48:37;8.02;;;2.70;;
22883;SDS011;13386;24.786;110.488;2023-09-12T10:51:08;7.97;;;2.70;;
22883;SDS011;13386;24.786;110.488;2023-09-12T10:53:46;5.93;;;2.17;;
22883;SDS011;13386;24.786;110.488;2023-09-12T10:56:18;8.88;;;2.30;;
22883;SDS011;13386;24.786;110.488;2023-09-12T11:01:36;8.35;;;2.45;;
22883;SDS011;13386;24.786;110.488;2023-09-12T11:06:55;5.90;;;2.28;;
22883;SDS011;13386;24.786;110.488;2023-09-12T11:09:30;6.80;;;2.30;;
22883;SDS011;13386;24.786;110.488;2023-09-12T11:12:02;12.35;;;2.58;;
22883;SDS011;13386;24.786;110.488;2023-09-12T11:14:34;8.18;;;2.88;;
22883;SDS011;13386;24.786;110.488;2023-09-12T11:19:52;8.10;;;2.70;;
22883;SDS011;13386;24.786;110.488;2023-09-12T11:22:26;8.65;;;2.83;;
22883;SDS011;13386;24.786;110.488;2023-09-12T11:24:59;6.10;;;2.42;;
22883;SDS011;13386;24.786;110.488;2023-09-12T11:27:44;7.85;;;2.78;;
22883;SDS011;13386;24.786;110.488;2023-09-12T11:30:16;8.68;;;2.58;;
22883;SDS011;13386;24.786;110.488;2023-09-12T11:32:49;11.95;;;2.67;;
22883;SDS011;13386;24.786;110.488;2023-09-12T11:35:21;7.50;;;2.80;;
22883;SDS011;13386;24.786;110.488;2023-09-12T11:37:53;7.25;;;2.55;;
22883;SDS011;13386;24.786;110.488;2023-09-12T11:40:25;4.75;;;2.50;;
22883;SDS011;13386;24.786;110.488;2023-09-12T11:42:57;6.32;;;2.20;;
22883;SDS011;13386;24.786;110.488;2023-09-12T11:45:27;5.30;;;2.10;;
22883;SDS011;13386;24.786;110.488;2023-09-12T11:47:59;4.95;;;2.20;;
22883;SDS011;13386;24.786;110.488;2023-09-12T11:50:29;5.20;;;2.38;;
22883;SDS011;13386;24.786;110.488;2023-09-12T11:53:03;5.33;;;1.90;;
22883;SDS011;13386;24.786;110.488;2023-09-12T11:56:00;4.68;;;2.13;;
22883;SDS011;13386;24.786;110.488;2023-09-12T11:58:31;4.38;;;2.38;;
22883;SDS011;13386;24.786;110.488;2023-09-12T12:01:02;10.10;;;4.50;;
22883;SDS011;13386;24.786;110.488;2023-09-12T12:03:59;6.32;;;2.65;;
22883;SDS011;13386;24.786;110.488;2023-09-12T12:06:30;5.35;;;2.58;;
22883;SDS011;13386;24.786;110.488;2023-09-12T12:09:02;5.18;;;2.05;;
22883;SDS011;13386;24.786;110.488;2023-09-12T12:11:51;4.65;;;2.20;;
22883;SDS011;13386;24.786;110.488;2023-09-12T12:14:27;4.13;;;2.10;;
22883;SDS011;13386;24.786;110.488;2023-09-12T12:17:06;3.72;;;1.60;;
22883;SDS011;13386;24.786;110.488;2023-09-12T12:20:12;3.65;;;1.70;;
22883;SDS011;13386;24.786;110.488;2023-09-12T12:22:43;3.78;;;1.55;;
22883;SDS011;13386;24.786;110.488;2023-09-12T12:25:14;3.47;;;1.83;;
22883;SDS011;13386;24.786;110.488;2023-09-12T12:27:57;3.80;;;1.80;;
22883;SDS011;13386;24.786;110.488;2023-09-12T12:30:30;5.17;;;1.93;;
22883;SDS011;13386;24.786;110.488;2023-09-12T12:33:06;3.58;;;2.10;;
22883;SDS011;13386;24.786;110.488;2023-09-12T12:35:36;3.45;;;2.00;;
22883;SDS011;13386;24.786;110.488;2023-09-12T12:38:08;4.90;;;1.45;;
22883;SDS011;13386;24.786;110.488;2023-09-12T12:40:42;4.88;;;1.98;;
22883;SDS011;13386;24.786;110.488;2023-09-12T12:43:20;3.40;;;1.80;;
22883;SDS011;13386;24.786;110.488;2023-09-12T12:46:00;3.55;;;1.95;;
22883;SDS011;13386;24.786;110.488;2023-09-12T12:48:32;3.90;;;2.03;;
22883;SDS011;13386;24.786;110.488;2023-09-12T12:51:16;4.38;;;1.70;;
22883;SDS011;13386;24.786;110.488;2023-09-12T12:54:22;4.28;;;2.05;;
22883;SDS011;13386;24.786;110.488;2023-09-12T12:56:52;4.72;;;2.05;;
22883;SDS011;13386;24.786;110.488;2023-09-12T12:59:26;5.03;;;2.13;;
22883;SDS011;13386;24.786;110.488;2023-09-12T13:01:56;3.60;;;2.00;;
22883;SDS011;13386;24.786;110.488;2023-09-12T13:04:29;7.28;;;2.40;;
22883;SDS011;13386;24.786;110.488;2023-09-12T13:07:20;4.68;;;2.20;;
22883;SDS011;13386;24.786;110.488;2023-09-12T13:09:51;4.90;;;2.05;;
22883;SDS011;13386;24.786;110.488;2023-09-12T13:12:26;4.93;;;2.03;;
22883;SDS011;13386;24.786;110.488;2023-09-12T13:14:59;4.60;;;2.03;;
22883;SDS011;13386;24.786;110.488;2023-09-12T13:17:32;5.00;;;2.08;;
22883;SDS011;13386;24.786;110.488;2023-09-12T13:20:05;6.72;;;2.20;;
22883;SDS011;13386;24.786;110.488;2023-09-12T13:22:37;7.07;;;2.22;;
22883;SDS011;13386;24.786;110.488;2023-09-12T13:25:12;7.93;;;2.63;;
22883;SDS011;13386;24.786;110.488;2023-09-12T13:27:44;4.68;;;2.38;;
22883;SDS011;13386;24.786;110.488;2023-09-12T13:30:35;5.57;;;2.60;;
22883;SDS011;13386;24.786;110.488;2023-09-12T13:33:12;7.25;;;3.22;;
22883;SDS011;13386;24.786;110.488;2023-09-12T13:35:44;3.35;;;1.95;;
22883;SDS011;13386;24.786;110.488;2023-09-12T13:40:51;5.38;;;2.40;;
22883;SDS011;13386;24.786;110.488;2023-09-12T13:43:23;5.95;;;2.10;;
22883;SDS011;13386;24.786;110.488;2023-09-12T13:45:59;4.38;;;1.75;;
22883;SDS011;13386;24.786;110.488;2023-09-12T13:48:32;4.83;;;1.80;;
22883;SDS011;13386;24.786;110.488;2023-09-12T13:51:02;6.40;;;2.00;;
22883;SDS011;13386;24.786;110.488;2023-09-12T13:53:37;6.75;;;2.30;;
22883;SDS011;13386;24.786;110.488;2023-09-12T13:56:07;3.88;;;1.98;;
22883;SDS011;13386;24.786;110.488;2023-09-12T13:58:41;6.28;;;1.90;;
22883;SDS011;13386;24.786;110.488;2023-09-12T14:01:33;7.03;;;1.80;;
22883;SDS011;13386;24.786;110.488;2023-09-12T14:04:06;5.00;;;1.77;;
22883;SDS011;13386;24.786;110.488;2023-09-12T14:06:38;5.70;;;1.70;;
22883;SDS011;13386;24.786;110.488;2023-09-12T14:09:09;5.68;;;1.80;;
22883;SDS011;13386;24.786;110.488;2023-09-12T14:11:47;7.68;;;1.77;;
22883;SDS011;13386;24.786;110.488;2023-09-12T14:14:17;3.75;;;2.10;;
22883;SDS011;13386;24.786;110.488;2023-09-12T14:16:51;5.35;;;1.95;;
22883;SDS011;13386;24.786;110.488;2023-09-12T14:19:26;5.07;;;1.95;;
22883;SDS011;13386;24.786;110.488;2023-09-12T14:21:59;4.47;;;1.98;;
22883;SDS011;13386;24.786;110.488;2023-09-12T14:24:33;5.20;;;2.03;;
22883;SDS011;13386;24.786;110.488;2023-09-12T14:27:05;4.50;;;1.92;;
22883;SDS011;13386;24.786;110.488;2023-09-12T14:29:37;3.80;;;1.73;;
22883;SDS011;13386;24.786;110.488;2023-09-12T14:32:19;3.65;;;1.70;;
22883;SDS011;13386;24.786;110.488;2023-09-12T14:34:50;5.22;;;2.00;;
22883;SDS011;13386;24.786;110.488;2023-09-12T14:37:26;5.22;;;1.80;;
22883;SDS011;13386;24.786;110.488;2023-09-12T14:40:03;3.53;;;1.95;;
22883;SDS011;13386;24.786;110.488;2023-09-12T14:42:36;3.25;;;1.77;;
22883;SDS011;13386;24.786;110.488;2023-09-12T14:45:06;4.07;;;1.75;;
22883;SDS011;13386;24.786;110.488;2023-09-12T14:47:45;3.05;;;1.77;;
22883;SDS011;13386;24.786;110.488;2023-09-12T14:50:20;5.88;;;1.90;;
22883;SDS011;13386;24.786;110.488;2023-09-12T14:53:07;5.90;;;2.10;;
22883;SDS011;13386;24.786;110.488;2023-09-12T14:58:11;5.43;;;1.85;;
22883;SDS011;13386;24.786;110.488;2023-09-12T15:00:51;2.70;;;1.50;;
22883;SDS011;13386;24.786;110.488;2023-09-12T15:03:33;5.10;;;1.75;;
22883;SDS011;13386;24.786;110.488;2023-09-12T15:06:04;6.05;;;1.70;;
22883;SDS011;13386;24.786;110.488;2023-09-12T15:08:55;6.82;;;2.70;;
22883;SDS011;13386;24.786;110.488;2023-09-12T15:11:27;7.32;;;3.20;;
22883;SDS011;13386;24.786;110.488;2023-09-12T15:13:59;5.10;;;2.00;;